createdAt,value
2018-09-25T00:00:48.503Z,1026.79
2018-09-25T00:01:48.457Z,1026.78
2018-09-25T00:02:48.410Z,1026.81
2018-09-25T00:03:48.682Z,1026.82
2018-09-25T00:04:48.319Z,1026.83
2018-09-25T00:05:48.273Z,1026.86
2018-09-25T00:06:48.227Z,1026.85
2018-09-25T00:07:48.183Z,1026.85
2018-09-25T00:08:48.135Z,1026.88
2018-09-25T00:09:48.090Z,1026.87
2018-09-25T00:10:48.044Z,1026.91
2018-09-25T00:11:47.998Z,1026.86
2018-09-25T00:12:47.952Z,1026.88
2018-09-25T00:13:47.906Z,1026.90
2018-09-25T00:14:47.862Z,1026.92
2018-09-25T00:15:47.814Z,1026.85
2018-09-25T00:16:47.769Z,1026.92
2018-09-25T00:17:47.723Z,1026.92
2018-09-25T00:18:47.676Z,1026.89
2018-09-25T00:19:47.630Z,1026.95
2018-09-25T00:20:47.587Z,1026.94
2018-09-25T00:21:47.539Z,1026.92
2018-09-25T00:22:47.492Z,1026.94
2018-09-25T00:23:47.447Z,1026.96
2018-09-25T00:24:47.402Z,1026.94
2018-09-25T00:25:47.355Z,1026.90
2018-09-25T00:26:47.309Z,1026.93
2018-09-25T00:27:47.263Z,1026.94
2018-09-25T00:28:47.221Z,1027.01
2018-09-25T00:29:47.171Z,1026.98
2018-09-25T00:30:47.125Z,1027.00
2018-09-25T00:31:47.079Z,1027.01
2018-09-25T00:32:47.033Z,1026.97
2018-09-25T00:33:46.987Z,1027.02
2018-09-25T00:34:46.941Z,1026.99
2018-09-25T00:35:46.895Z,1027.01
2018-09-25T00:36:46.850Z,1027.04
2018-09-25T00:37:46.804Z,1027.03
2018-09-25T00:38:46.757Z,1027.03
2018-09-25T00:39:46.711Z,1027.05
2018-09-25T00:40:46.665Z,1027.08
2018-09-25T00:41:46.619Z,1027.07
2018-09-25T00:42:46.573Z,1027.06
2018-09-25T00:43:46.528Z,1027.03
2018-09-25T00:44:46.482Z,1027.00
2018-09-25T00:45:46.436Z,1027.02
2018-09-25T00:46:46.389Z,1026.98
2018-09-25T00:47:46.346Z,1027.08
2018-09-25T00:48:46.298Z,1027.14
2018-09-25T00:49:46.252Z,1027.06
2018-09-25T00:50:46.205Z,1027.11
2018-09-25T00:51:46.160Z,1027.11
2018-09-25T00:52:46.114Z,1027.05
2018-09-25T00:53:46.068Z,1027.06
2018-09-25T00:54:46.022Z,1027.10
2018-09-25T00:55:45.978Z,1027.11
2018-09-25T00:56:45.930Z,1027.09
2018-09-25T00:57:45.885Z,1027.14
2018-09-25T00:58:45.838Z,1027.10
2018-09-25T00:59:45.792Z,1027.11
2018-09-25T01:00:45.746Z,1027.13
2018-09-25T01:01:45.700Z,1027.19
2018-09-25T01:02:45.656Z,1027.18
2018-09-25T01:03:45.608Z,1027.24
2018-09-25T01:04:45.562Z,1027.26
2018-09-25T01:05:45.517Z,1027.31
2018-09-25T01:06:45.470Z,1027.32
2018-09-25T01:07:45.424Z,1027.36
2018-09-25T01:08:45.379Z,1027.31
2018-09-25T01:09:45.333Z,1027.31
2018-09-25T01:10:45.286Z,1027.34
2018-09-25T01:11:45.240Z,1027.35
2018-09-25T01:12:45.195Z,1027.30
2018-09-25T01:13:45.149Z,1027.32
2018-09-25T01:14:45.102Z,1027.36
2018-09-25T01:15:45.057Z,1027.31
2018-09-25T01:16:45.011Z,1027.32
2018-09-25T01:17:44.965Z,1027.35
2018-09-25T01:18:44.919Z,1027.32
2018-09-25T01:19:44.873Z,1027.37
2018-09-25T01:20:45.145Z,1027.37
2018-09-25T01:21:45.098Z,1027.35
2018-09-25T01:22:45.053Z,1027.38
2018-09-25T01:23:44.689Z,1027.38
2018-09-25T01:24:44.644Z,1027.39
2018-09-25T01:25:44.597Z,1027.37
2018-09-25T01:26:44.551Z,1027.36
2018-09-25T01:27:44.505Z,1027.43
2018-09-25T01:28:44.460Z,1027.40
2018-09-25T01:29:44.416Z,1027.41
2018-09-25T01:30:44.372Z,1027.42
2018-09-25T01:31:44.325Z,1027.43
2018-09-25T01:32:44.276Z,1027.42
2018-09-25T01:33:44.230Z,1027.42
2018-09-25T01:34:44.183Z,1027.45
2018-09-25T01:35:44.137Z,1027.46
2018-09-25T01:36:44.093Z,1027.47
2018-09-25T01:37:44.046Z,1027.46
2018-09-25T01:38:44.003Z,1027.44
2018-09-25T01:39:43.954Z,1027.47
2018-09-25T01:40:43.908Z,1027.47
2018-09-25T01:41:43.862Z,1027.50
2018-09-25T01:42:43.819Z,1027.48
2018-09-25T01:43:43.770Z,1027.52
2018-09-25T01:44:43.724Z,1027.53
2018-09-25T01:45:43.680Z,1027.58
2018-09-25T01:46:43.632Z,1027.57
2018-09-25T01:47:43.586Z,1027.56
2018-09-25T01:48:43.540Z,1027.58
2018-09-25T01:49:43.494Z,1027.53
2018-09-25T01:50:43.448Z,1027.52
2018-09-25T01:51:43.402Z,1027.57
2018-09-25T01:52:43.357Z,1027.51
2018-09-25T01:53:43.314Z,1027.58
2018-09-25T01:54:43.264Z,1027.57
2018-09-25T01:55:43.218Z,1027.57
2018-09-25T01:56:43.172Z,1027.53
2018-09-25T01:57:43.127Z,1027.53
2018-09-25T01:58:43.080Z,1027.57
2018-09-25T01:59:43.035Z,1027.53
2018-09-25T02:00:42.989Z,1027.64
2018-09-25T02:01:42.943Z,1027.62
2018-09-25T02:02:42.896Z,1027.63
2018-09-25T02:03:42.850Z,1027.62
2018-09-25T02:04:42.805Z,1027.65
2018-09-25T02:05:42.772Z,1027.64
2018-09-25T02:06:42.712Z,1027.65
2018-09-25T02:07:42.667Z,1027.69
2018-09-25T02:08:42.621Z,1027.72
2018-09-25T02:09:42.575Z,1027.72
2018-09-25T02:10:42.528Z,1027.74
2018-09-25T02:11:42.483Z,1027.70
2018-09-25T02:12:42.437Z,1027.76
2018-09-25T02:13:42.391Z,1027.73
2018-09-25T02:14:42.346Z,1027.75
2018-09-25T02:15:42.299Z,1027.77
2018-09-25T02:16:42.252Z,1027.78
2018-09-25T02:17:42.207Z,1027.77
2018-09-25T02:18:42.160Z,1027.83
2018-09-25T02:19:42.116Z,1027.82
2018-09-25T02:20:42.069Z,1027.85
2018-09-25T02:21:42.023Z,1027.82
2018-09-25T02:22:41.977Z,1027.84
2018-09-25T02:23:41.931Z,1027.86
2018-09-25T02:24:41.885Z,1027.89
2018-09-25T02:25:41.839Z,1027.83
2018-09-25T02:26:41.795Z,1027.88
2018-09-25T02:27:41.748Z,1027.86
2018-09-25T02:28:41.704Z,1027.89
2018-09-25T02:29:41.656Z,1027.88
2018-09-25T02:30:41.609Z,1027.89
2018-09-25T02:31:41.564Z,1027.89
2018-09-25T02:32:41.517Z,1027.97
2018-09-25T02:33:41.475Z,1027.92
2018-09-25T02:34:41.424Z,1027.90
2018-09-25T02:35:41.387Z,1027.82
2018-09-25T02:36:41.333Z,1027.90
2018-09-25T02:37:41.288Z,1027.89
2018-09-25T02:38:41.241Z,1027.90
2018-09-25T02:39:41.199Z,1027.84
2018-09-25T02:40:41.149Z,1027.89
2018-09-25T02:41:41.104Z,1027.90
2018-09-25T02:42:41.062Z,1027.92
2018-09-25T02:43:41.011Z,1027.94
2018-09-25T02:44:41.015Z,1028.03
2018-09-25T02:45:40.919Z,1028.02
2018-09-25T02:46:40.872Z,1028.05
2018-09-25T02:47:40.829Z,1028.04
2018-09-25T02:48:40.781Z,1028.08
2018-09-25T02:49:40.735Z,1028.12
2018-09-25T02:50:40.688Z,1028.04
2018-09-25T02:51:40.643Z,1028.09
2018-09-25T02:52:40.601Z,1028.09
2018-09-25T02:53:40.551Z,1028.16
2018-09-25T02:54:40.508Z,1028.15
2018-09-25T02:55:40.464Z,1028.15
2018-09-25T02:56:40.415Z,1028.20
2018-09-25T02:57:40.367Z,1028.23
2018-09-25T02:58:40.320Z,1028.19
2018-09-25T02:59:40.275Z,1028.22
2018-09-25T03:00:40.229Z,1028.22
2018-09-25T03:01:40.184Z,1028.21
2018-09-25T03:02:40.137Z,1028.21
2018-09-25T03:03:40.090Z,1028.20
2018-09-25T03:04:40.045Z,1028.20
2018-09-25T03:05:39.999Z,1028.23
2018-09-25T03:06:39.953Z,1028.24
2018-09-25T03:07:39.907Z,1028.19
2018-09-25T03:08:39.861Z,1028.26
2018-09-25T03:09:39.815Z,1028.26
2018-09-25T03:10:39.769Z,1028.30
2018-09-25T03:11:39.723Z,1028.26
2018-09-25T03:12:39.677Z,1028.26
2018-09-25T03:13:39.631Z,1028.24
2018-09-25T03:14:39.585Z,1028.31
2018-09-25T03:15:39.539Z,1028.30
2018-09-25T03:16:39.493Z,1028.32
2018-09-25T03:17:39.497Z,1028.28
2018-09-25T03:18:39.400Z,1028.31
2018-09-25T03:19:39.355Z,1028.33
2018-09-25T03:20:39.309Z,1028.32
2018-09-25T03:21:39.262Z,1028.34
2018-09-25T03:22:39.216Z,1028.39
2018-09-25T03:23:39.173Z,1028.34
2018-09-25T03:24:39.125Z,1028.38
2018-09-25T03:25:39.079Z,1028.39
2018-09-25T03:26:39.032Z,1028.38
2018-09-25T03:27:38.988Z,1028.40
2018-09-25T03:28:38.942Z,1028.39
2018-09-25T03:29:38.895Z,1028.38
2018-09-25T03:30:38.848Z,1028.39
2018-09-25T03:31:38.817Z,1028.40
2018-09-25T03:32:38.757Z,1028.39
2018-09-25T03:33:38.711Z,1028.43
2018-09-25T03:34:38.668Z,1028.43
2018-09-25T03:35:38.619Z,1028.45
2018-09-25T03:36:38.572Z,1028.47
2018-09-25T03:37:38.526Z,1028.46
2018-09-25T03:38:38.481Z,1028.46
2018-09-25T03:39:38.435Z,1028.50
2018-09-25T03:40:38.390Z,1028.48
2018-09-25T03:41:38.346Z,1028.51
2018-09-25T03:42:38.296Z,1028.51
2018-09-25T03:43:38.250Z,1028.55
2018-09-25T03:44:38.205Z,1028.49
2018-09-25T03:45:38.160Z,1028.52
2018-09-25T03:46:38.112Z,1028.54
2018-09-25T03:47:38.067Z,1028.57
2018-09-25T03:48:38.027Z,1028.58
2018-09-25T03:49:37.975Z,1028.56
2018-09-25T03:50:37.929Z,1028.53
2018-09-25T03:51:37.884Z,1028.57
2018-09-25T03:52:37.839Z,1028.60
2018-09-25T03:53:37.791Z,1028.62
2018-09-25T03:54:37.744Z,1028.62
2018-09-25T03:55:37.701Z,1028.63
2018-09-25T03:56:37.654Z,1028.63
2018-09-25T03:57:37.610Z,1028.63
2018-09-25T03:58:37.561Z,1028.65
2018-09-25T03:59:37.567Z,1028.67
2018-09-25T04:00:37.469Z,1028.67
2018-09-25T04:01:37.441Z,1028.69
2018-09-25T04:02:37.380Z,1028.70
2018-09-25T04:03:37.331Z,1028.68
2018-09-25T04:04:37.293Z,1028.71
2018-09-25T04:05:37.242Z,1028.74
2018-09-25T04:06:37.193Z,1028.76
2018-09-25T04:07:37.151Z,1028.77
2018-09-25T04:08:37.106Z,1028.77
2018-09-25T04:09:37.056Z,1028.83
2018-09-25T04:10:37.017Z,1028.86
2018-09-25T04:11:36.963Z,1028.86
2018-09-25T04:12:36.918Z,1028.87
2018-09-25T04:13:36.880Z,1028.88
2018-09-25T04:14:36.825Z,1028.90
2018-09-25T04:15:36.780Z,1028.92
2018-09-25T04:16:36.733Z,1028.96
2018-09-25T04:17:36.688Z,1028.97
2018-09-25T04:18:36.648Z,1029.06
2018-09-25T04:19:36.596Z,1029.02
2018-09-25T04:20:36.550Z,1029.04
2018-09-25T04:21:36.504Z,1029.11
2018-09-25T04:22:36.458Z,1029.09
2018-09-25T04:23:36.412Z,1029.13
2018-09-25T04:24:36.366Z,1029.12
2018-09-25T04:25:36.320Z,1029.17
2018-09-25T04:26:36.276Z,1029.19
2018-09-25T04:27:36.227Z,1029.20
2018-09-25T04:28:36.183Z,1029.21
2018-09-25T04:29:36.138Z,1029.21
2018-09-25T04:30:36.090Z,1029.24
2018-09-25T04:31:36.051Z,1029.22
2018-09-25T04:32:35.998Z,1029.27
2018-09-25T04:33:35.953Z,1029.29
2018-09-25T04:34:35.909Z,1029.32
2018-09-25T04:35:35.860Z,1029.32
2018-09-25T04:36:35.814Z,1029.35
2018-09-25T04:37:35.770Z,1029.34
2018-09-25T04:38:35.722Z,1029.35
2018-09-25T04:39:35.688Z,1029.33
2018-09-25T04:40:35.634Z,1029.39
2018-09-25T04:41:35.584Z,1029.36
2018-09-25T04:42:35.540Z,1029.39
2018-09-25T04:43:35.492Z,1029.35
2018-09-25T04:44:35.446Z,1029.38
2018-09-25T04:45:35.401Z,1029.40
2018-09-25T04:46:35.354Z,1029.43
2018-09-25T04:47:35.307Z,1029.43
2018-09-25T04:48:35.312Z,1029.41
2018-09-25T04:49:35.216Z,1029.41
2018-09-25T04:50:35.169Z,1029.45
2018-09-25T04:51:35.124Z,1029.48
2018-09-25T04:52:35.078Z,1029.47
2018-09-25T04:53:35.038Z,1029.51
2018-09-25T04:54:34.985Z,1029.52
2018-09-25T04:55:34.940Z,1029.53
2018-09-25T04:56:34.894Z,1029.58
2018-09-25T04:57:34.848Z,1029.56
2018-09-25T04:58:34.801Z,1029.58
2018-09-25T04:59:34.756Z,1029.61
2018-09-25T05:00:34.709Z,1029.57
2018-09-25T05:01:34.664Z,1029.59
2018-09-25T05:02:34.625Z,1029.61
2018-09-25T05:03:34.571Z,1029.61
2018-09-25T05:04:34.530Z,1029.63
2018-09-25T05:05:34.480Z,1029.70
2018-09-25T05:06:34.464Z,1029.65
2018-09-25T05:07:34.387Z,1029.61
2018-09-25T05:08:34.341Z,1029.62
2018-09-25T05:09:34.297Z,1029.67
2018-09-25T05:10:34.249Z,1029.67
2018-09-25T05:11:34.203Z,1029.65
2018-09-25T05:12:34.157Z,1029.66
2018-09-25T05:13:34.115Z,1029.67
2018-09-25T05:14:34.083Z,1029.67
2018-09-25T05:15:34.023Z,1029.68
2018-09-25T05:16:33.973Z,1029.72
2018-09-25T05:17:33.927Z,1029.65
2018-09-25T05:18:33.881Z,1029.70
2018-09-25T05:19:33.834Z,1029.69
2018-09-25T05:20:33.789Z,1029.69
2018-09-25T05:21:33.743Z,1029.73
2018-09-25T05:22:33.697Z,1029.72
2018-09-25T05:23:33.670Z,1029.80
2018-09-25T05:24:33.605Z,1029.80
2018-09-25T05:25:33.559Z,1029.83
2018-09-25T05:26:33.512Z,1029.87
2018-09-25T05:27:33.468Z,1029.85
2018-09-25T05:28:33.420Z,1029.88
2018-09-25T05:29:33.376Z,1029.84
2018-09-25T05:30:33.328Z,1029.88
2018-09-25T05:31:33.282Z,1029.88
2018-09-25T05:32:33.237Z,1029.89
2018-09-25T05:33:33.191Z,1029.86
2018-09-25T05:34:33.144Z,1029.88
2018-09-25T05:35:33.098Z,1029.91
2018-09-25T05:36:33.053Z,1029.91
2018-09-25T05:37:33.007Z,1029.88
2018-09-25T05:38:32.960Z,1029.94
2018-09-25T05:39:32.914Z,1029.93
2018-09-25T05:40:32.869Z,1029.96
2018-09-25T05:41:32.823Z,1029.92
2018-09-25T05:42:32.776Z,1029.96
2018-09-25T05:43:32.731Z,1029.95
2018-09-25T05:44:32.685Z,1029.98
2018-09-25T05:45:32.645Z,1029.96
2018-09-25T05:46:32.593Z,1029.99
2018-09-25T05:47:32.547Z,1029.97
2018-09-25T05:48:32.639Z,1029.99
2018-09-25T05:49:32.460Z,1029.99
2018-09-25T05:50:32.420Z,1030.00
2018-09-25T05:51:32.366Z,1030.03
2018-09-25T05:52:32.317Z,1030.07
2018-09-25T05:53:32.271Z,1030.08
2018-09-25T05:54:32.226Z,1030.09
2018-09-25T05:55:32.257Z,1030.11
2018-09-25T05:56:32.134Z,1030.16
2018-09-25T05:57:32.088Z,1030.17
2018-09-25T05:58:32.041Z,1030.13
2018-09-25T05:59:31.999Z,1030.15
2018-09-25T06:00:31.950Z,1030.20
2018-09-25T06:01:32.223Z,1030.22
2018-09-25T06:02:31.857Z,1030.25
2018-09-25T06:03:31.812Z,1030.27
2018-09-25T06:04:31.765Z,1030.27
2018-09-25T06:05:31.720Z,1030.30
2018-09-25T06:06:31.676Z,1030.34
2018-09-25T06:07:31.628Z,1030.32
2018-09-25T06:08:31.583Z,1030.33
2018-09-25T06:09:31.574Z,1030.34
2018-09-25T06:10:31.490Z,1030.42
2018-09-25T06:11:31.443Z,1030.40
2018-09-25T06:12:31.399Z,1030.38
2018-09-25T06:13:31.354Z,1030.44
2018-09-25T06:14:31.306Z,1030.42
2018-09-25T06:15:31.310Z,1030.41
2018-09-25T06:16:31.215Z,1030.45
2018-09-25T06:17:31.170Z,1030.42
2018-09-25T06:18:31.124Z,1030.40
2018-09-25T06:19:31.084Z,1030.46
2018-09-25T06:20:31.035Z,1030.41
2018-09-25T06:21:30.987Z,1030.44
2018-09-25T06:22:30.939Z,1030.46
2018-09-25T06:23:30.894Z,1030.49
2018-09-25T06:24:30.851Z,1030.51
2018-09-25T06:25:30.804Z,1030.49
2018-09-25T06:26:30.755Z,1030.50
2018-09-25T06:27:30.712Z,1030.54
2018-09-25T06:28:30.664Z,1030.52
2018-09-25T06:29:30.619Z,1030.51
2018-09-25T06:30:30.578Z,1030.54
2018-09-25T06:31:30.530Z,1030.55
2018-09-25T06:32:30.480Z,1030.56
2018-09-25T06:33:30.436Z,1030.60
2018-09-25T06:34:30.432Z,1030.62
2018-09-25T06:35:30.343Z,1030.64
2018-09-25T06:36:30.298Z,1030.71
2018-09-25T06:37:30.252Z,1030.69
2018-09-25T06:38:30.205Z,1030.74
2018-09-25T06:39:30.162Z,1030.73
2018-09-25T06:40:30.114Z,1030.76
2018-09-25T06:41:30.069Z,1030.71
2018-09-25T06:42:30.029Z,1030.74
2018-09-25T06:43:29.976Z,1030.73
2018-09-25T06:44:29.937Z,1030.73
2018-09-25T06:45:29.885Z,1030.77
2018-09-25T06:46:29.840Z,1030.75
2018-09-25T06:47:29.794Z,1030.78
2018-09-25T06:48:29.748Z,1030.78
2018-09-25T06:49:29.703Z,1030.82
2018-09-25T06:50:29.657Z,1030.79
2018-09-25T06:51:29.612Z,1030.82
2018-09-25T06:52:29.565Z,1030.81
2018-09-25T06:53:29.521Z,1030.82
2018-09-25T06:54:29.474Z,1030.83
2018-09-25T06:55:29.429Z,1030.87
2018-09-25T06:56:29.383Z,1030.83
2018-09-25T06:57:29.338Z,1030.88
2018-09-25T06:58:29.292Z,1030.85
2018-09-25T06:59:29.248Z,1030.92
2018-09-25T07:00:29.202Z,1030.92
2018-09-25T07:01:29.158Z,1030.93
2018-09-25T07:02:29.110Z,1030.97
2018-09-25T07:03:29.065Z,1030.95
2018-09-25T07:04:29.021Z,1030.99
2018-09-25T07:05:28.974Z,1031.02
2018-09-25T07:06:28.931Z,1031.01
2018-09-25T07:07:28.883Z,1031.05
2018-09-25T07:08:28.848Z,1031.04
2018-09-25T07:09:28.794Z,1031.05
2018-09-25T07:10:28.966Z,1031.12
2018-09-25T07:11:28.702Z,1031.11
2018-09-25T07:12:28.658Z,1031.11
2018-09-25T07:13:28.612Z,1031.17
2018-09-25T07:14:28.567Z,1031.18
2018-09-25T07:15:28.522Z,1031.25
2018-09-25T07:16:28.477Z,1031.23
2018-09-25T07:17:28.461Z,1031.27
2018-09-25T07:18:28.387Z,1031.28
2018-09-25T07:19:28.342Z,1031.28
2018-09-25T07:20:28.296Z,1031.31
2018-09-25T07:21:28.253Z,1031.34
2018-09-25T07:22:28.208Z,1031.33
2018-09-25T07:23:28.164Z,1031.35
2018-09-25T07:24:28.153Z,1031.34
2018-09-25T07:25:28.074Z,1031.40
2018-09-25T07:26:28.029Z,1031.41
2018-09-25T07:27:27.985Z,1031.46
2018-09-25T07:28:27.939Z,1031.49
2018-09-25T07:29:27.896Z,1031.47
2018-09-25T07:30:27.856Z,1031.49
2018-09-25T07:31:27.807Z,1031.47
2018-09-25T07:32:27.813Z,1031.47
2018-09-25T07:33:27.718Z,1031.49
2018-09-25T07:34:27.674Z,1031.50
2018-09-25T07:35:27.632Z,1031.53
2018-09-25T07:36:27.588Z,1031.53
2018-09-25T07:37:27.540Z,1031.50
2018-09-25T07:38:27.495Z,1031.51
2018-09-25T07:39:27.452Z,1031.54
2018-09-25T07:40:27.408Z,1031.56
2018-09-25T07:41:27.365Z,1031.57
2018-09-25T07:42:27.320Z,1031.54
2018-09-25T07:43:27.277Z,1031.58
2018-09-25T07:44:27.231Z,1031.60
2018-09-25T07:45:27.190Z,1031.60
2018-09-25T07:46:27.142Z,1031.59
2018-09-25T07:47:27.104Z,1031.59
2018-09-25T07:48:27.056Z,1031.59
2018-09-25T07:49:27.011Z,1031.65
2018-09-25T07:50:26.968Z,1031.65
2018-09-25T07:51:26.923Z,1031.66
2018-09-25T07:52:26.880Z,1031.68
2018-09-25T07:53:26.836Z,1031.69
2018-09-25T07:54:26.796Z,1031.69
2018-09-25T07:55:26.783Z,1031.69
2018-09-25T07:56:26.703Z,1031.69
2018-09-25T07:57:26.658Z,1031.69
2018-09-25T07:58:26.615Z,1031.65
2018-09-25T07:59:26.573Z,1031.69
2018-09-25T08:00:26.529Z,1031.69
2018-09-25T08:01:26.483Z,1031.70
2018-09-25T08:02:26.438Z,1031.71
2018-09-25T08:03:26.446Z,1031.72
2018-09-25T08:04:26.350Z,1031.75
2018-09-25T08:05:26.355Z,1031.70
2018-09-25T08:06:26.260Z,1031.72
2018-09-25T08:07:26.219Z,1031.74
2018-09-25T08:08:26.172Z,1031.73
2018-09-25T08:09:26.129Z,1031.76
2018-09-25T08:10:26.084Z,1031.77
2018-09-25T08:11:26.039Z,1031.78
2018-09-25T08:12:25.996Z,1031.79
2018-09-25T08:13:25.952Z,1031.80
2018-09-25T08:14:25.906Z,1031.78
2018-09-25T08:15:25.916Z,1031.84
2018-09-25T08:16:25.818Z,1031.83
2018-09-25T08:17:25.775Z,1031.86
2018-09-25T08:18:25.731Z,1031.80
2018-09-25T08:19:25.685Z,1031.83
2018-09-25T08:20:25.640Z,1031.89
2018-09-25T08:21:25.597Z,1031.88
2018-09-25T08:22:25.552Z,1031.86
2018-09-25T08:23:25.508Z,1031.88
2018-09-25T08:24:25.472Z,1031.89
2018-09-25T08:25:25.419Z,1031.92
2018-09-25T08:26:25.373Z,1031.98
2018-09-25T08:27:25.329Z,1031.98
2018-09-25T08:28:25.283Z,1031.95
2018-09-25T08:29:25.240Z,1031.95
2018-09-25T08:30:25.195Z,1031.92
2018-09-25T08:31:25.155Z,1031.94
2018-09-25T08:32:25.105Z,1031.93
2018-09-25T08:33:25.062Z,1031.93
2018-09-25T08:34:25.015Z,1031.91
2018-09-25T08:35:24.971Z,1031.92
2018-09-25T08:36:24.926Z,1031.96
2018-09-25T08:37:24.882Z,1031.94
2018-09-25T08:38:24.862Z,1031.97
2018-09-25T08:39:24.908Z,1031.99
2018-09-25T08:40:24.757Z,1031.99
2018-09-25T08:41:24.702Z,1031.97
2018-09-25T08:42:24.656Z,1031.96
2018-09-25T08:43:24.611Z,1031.96
2018-09-25T08:44:24.566Z,1031.97
2018-09-25T08:45:24.521Z,1031.99
2018-09-25T08:46:24.474Z,1031.98
2018-09-25T08:47:24.430Z,1031.99
2018-09-25T08:48:24.385Z,1031.96
2018-09-25T08:49:24.340Z,1031.99
2018-09-25T08:50:24.298Z,1032.06
2018-09-25T08:51:24.249Z,1032.05
2018-09-25T08:52:24.203Z,1031.99
2018-09-25T08:53:24.228Z,1032.02
2018-09-25T08:54:24.111Z,1032.05
2018-09-25T08:55:24.066Z,1032.08
2018-09-25T08:56:24.021Z,1032.11
2018-09-25T08:57:23.975Z,1032.10
2018-09-25T08:58:23.928Z,1032.13
2018-09-25T08:59:23.882Z,1032.15
2018-09-25T09:00:23.836Z,1032.13
2018-09-25T09:01:23.789Z,1032.13
2018-09-25T09:02:23.743Z,1032.15
2018-09-25T09:03:23.698Z,1032.18
2018-09-25T09:04:23.650Z,1032.17
2018-09-25T09:05:23.605Z,1032.19
2018-09-25T09:06:23.556Z,1032.17
2018-09-25T09:07:23.511Z,1032.21
2018-09-25T09:08:23.529Z,1032.20
2018-09-25T09:09:23.418Z,1032.20
2018-09-25T09:10:23.371Z,1032.23
2018-09-25T09:11:23.325Z,1032.25
2018-09-25T09:12:23.284Z,1032.20
2018-09-25T09:13:23.232Z,1032.22
2018-09-25T09:14:23.190Z,1032.21
2018-09-25T09:15:23.139Z,1032.25
2018-09-25T09:16:23.091Z,1032.26
2018-09-25T09:17:23.045Z,1032.25
2018-09-25T09:18:22.999Z,1032.29
2018-09-25T09:19:22.951Z,1032.31
2018-09-25T09:20:22.905Z,1032.27
2018-09-25T09:21:22.857Z,1032.29
2018-09-25T09:22:22.810Z,1032.30
2018-09-25T09:23:22.763Z,1032.30
2018-09-25T09:24:22.717Z,1032.32
2018-09-25T09:25:22.677Z,1032.31
2018-09-25T09:26:22.622Z,1032.28
2018-09-25T09:27:22.576Z,1032.29
2018-09-25T09:28:22.528Z,1032.33
2018-09-25T09:29:22.483Z,1032.34
2018-09-25T09:30:22.484Z,1032.33
2018-09-25T09:31:22.387Z,1032.33
2018-09-25T09:32:22.345Z,1032.30
2018-09-25T09:33:22.294Z,1032.34
2018-09-25T09:34:22.248Z,1032.29
2018-09-25T09:35:22.200Z,1032.31
2018-09-25T09:36:22.157Z,1032.34
2018-09-25T09:37:22.105Z,1032.34
2018-09-25T09:38:22.058Z,1032.33
2018-09-25T09:39:22.012Z,1032.33
2018-09-25T09:40:21.965Z,1032.32
2018-09-25T09:41:22.017Z,1032.31
2018-09-25T09:42:21.870Z,1032.37
2018-09-25T09:43:21.823Z,1032.36
2018-09-25T09:44:21.776Z,1032.40
2018-09-25T09:45:21.730Z,1032.40
2018-09-25T09:46:21.682Z,1032.38
2018-09-25T09:47:21.637Z,1032.35
2018-09-25T09:48:21.589Z,1032.32
2018-09-25T09:49:21.542Z,1032.35
2018-09-25T09:50:21.513Z,1032.34
2018-09-25T09:51:21.448Z,1032.37
2018-09-25T09:52:21.401Z,1032.41
2018-09-25T09:53:21.356Z,1032.34
2018-09-25T09:54:21.306Z,1032.29
2018-09-25T09:55:21.265Z,1032.32
2018-09-25T09:56:21.251Z,1032.30
2018-09-25T09:57:21.164Z,1032.31
2018-09-25T09:58:21.117Z,1032.33
2018-09-25T09:59:21.070Z,1032.34
2018-09-25T10:00:21.024Z,1032.35
2018-09-25T10:01:20.976Z,1032.35
2018-09-25T10:02:20.928Z,1032.35
2018-09-25T10:03:20.885Z,1032.39
2018-09-25T10:04:20.834Z,1032.37
2018-09-25T10:05:20.837Z,1032.38
2018-09-25T10:06:20.739Z,1032.37
2018-09-25T10:07:20.693Z,1032.36
2018-09-25T10:08:20.646Z,1032.36
2018-09-25T10:09:20.625Z,1032.36
2018-09-25T10:10:20.551Z,1032.41
2018-09-25T10:11:20.504Z,1032.39
2018-09-25T10:12:20.510Z,1032.34
2018-09-25T10:13:20.410Z,1032.42
2018-09-25T10:14:20.362Z,1032.39
2018-09-25T10:15:20.315Z,1032.39
2018-09-25T10:16:20.269Z,1032.43
2018-09-25T10:17:20.221Z,1032.44
2018-09-25T10:18:20.173Z,1032.41
2018-09-25T10:19:20.131Z,1032.39
2018-09-25T10:20:20.079Z,1032.37
2018-09-25T10:21:20.082Z,1032.39
2018-09-25T10:22:19.983Z,1032.40
2018-09-25T10:23:19.937Z,1032.41
2018-09-25T10:24:19.893Z,1032.42
2018-09-25T10:25:19.843Z,1032.43
2018-09-25T10:26:19.796Z,1032.43
2018-09-25T10:27:19.754Z,1032.41
2018-09-25T10:28:19.701Z,1032.43
2018-09-25T10:29:19.655Z,1032.39
2018-09-25T10:30:19.607Z,1032.41
2018-09-25T10:31:19.559Z,1032.40
2018-09-25T10:32:19.514Z,1032.40
2018-09-25T10:33:19.465Z,1032.39
2018-09-25T10:34:19.454Z,1032.35
2018-09-25T10:35:19.371Z,1032.36
2018-09-25T10:36:19.326Z,1032.38
2018-09-25T10:37:19.278Z,1032.41
2018-09-25T10:38:19.230Z,1032.36
2018-09-25T10:39:19.182Z,1032.41
2018-09-25T10:40:19.135Z,1032.38
2018-09-25T10:41:19.089Z,1032.41
2018-09-25T10:42:19.044Z,1032.37
2018-09-25T10:43:18.992Z,1032.42
2018-09-25T10:44:18.946Z,1032.40
2018-09-25T10:45:18.899Z,1032.41
2018-09-25T10:46:18.851Z,1032.44
2018-09-25T10:47:18.804Z,1032.44
2018-09-25T10:48:18.757Z,1032.45
2018-09-25T10:49:18.710Z,1032.50
2018-09-25T10:50:18.705Z,1032.52
2018-09-25T10:51:18.615Z,1032.52
2018-09-25T10:52:18.569Z,1032.56
2018-09-25T10:53:18.520Z,1032.54
2018-09-25T10:54:18.484Z,1032.53
2018-09-25T10:55:18.445Z,1032.53
2018-09-25T10:56:18.505Z,1032.54
2018-09-25T10:57:18.341Z,1032.60
2018-09-25T10:58:18.290Z,1032.65
2018-09-25T10:59:18.236Z,1032.62
2018-09-25T11:00:18.189Z,1032.60
2018-09-25T11:01:18.153Z,1032.62
2018-09-25T11:02:18.094Z,1032.59
2018-09-25T11:03:18.252Z,1032.62
2018-09-25T11:04:18.000Z,1032.57
2018-09-25T11:05:17.953Z,1032.59
2018-09-25T11:06:17.908Z,1032.64
2018-09-25T11:07:17.857Z,1032.57
2018-09-25T11:08:17.812Z,1032.63
2018-09-25T11:09:17.764Z,1032.60
2018-09-25T11:10:17.715Z,1032.60
2018-09-25T11:11:17.719Z,1032.64
2018-09-25T11:12:17.621Z,1032.56
2018-09-25T11:13:17.574Z,1032.55
2018-09-25T11:14:17.525Z,1032.56
2018-09-25T11:15:17.479Z,1032.57
2018-09-25T11:16:17.430Z,1032.56
2018-09-25T11:17:17.384Z,1032.60
2018-09-25T11:18:17.336Z,1032.57
2018-09-25T11:19:17.289Z,1032.57
2018-09-25T11:20:17.241Z,1032.57
2018-09-25T11:21:17.194Z,1032.53
2018-09-25T11:22:17.246Z,1032.61
2018-09-25T11:23:17.099Z,1032.59
2018-09-25T11:24:17.052Z,1032.63
2018-09-25T11:25:17.005Z,1032.63
2018-09-25T11:26:16.957Z,1032.63
2018-09-25T11:27:16.909Z,1032.60
2018-09-25T11:28:16.861Z,1032.59
2018-09-25T11:29:16.815Z,1032.62
2018-09-25T11:30:16.766Z,1032.61
2018-09-25T11:31:16.723Z,1032.66
2018-09-25T11:32:16.673Z,1032.65
2018-09-25T11:33:16.625Z,1032.68
2018-09-25T11:34:16.577Z,1032.68
2018-09-25T11:35:16.558Z,1032.70
2018-09-25T11:36:16.485Z,1032.72
2018-09-25T11:37:16.436Z,1032.69
2018-09-25T11:38:16.393Z,1032.69
2018-09-25T11:39:16.340Z,1032.69
2018-09-25T11:40:16.297Z,1032.67
2018-09-25T11:41:16.300Z,1032.67
2018-09-25T11:42:16.198Z,1032.65
2018-09-25T11:43:16.151Z,1032.61
2018-09-25T11:44:16.104Z,1032.64
2018-09-25T11:45:16.056Z,1032.68
2018-09-25T11:46:16.008Z,1032.70
2018-09-25T11:47:16.081Z,1032.65
2018-09-25T11:48:15.913Z,1032.59
2018-09-25T11:49:15.867Z,1032.61
2018-09-25T11:50:15.819Z,1032.66
2018-09-25T11:51:15.771Z,1032.57
2018-09-25T11:52:15.730Z,1032.61
2018-09-25T11:53:15.681Z,1032.63
2018-09-25T11:54:15.629Z,1032.65
2018-09-25T11:55:15.632Z,1032.63
2018-09-25T11:56:15.623Z,1032.67
2018-09-25T11:57:15.488Z,1032.67
2018-09-25T11:58:15.439Z,1032.65
2018-09-25T11:59:15.391Z,1032.59
2018-09-25T12:00:15.448Z,1032.64
2018-09-25T12:01:15.299Z,1032.63
2018-09-25T12:02:15.345Z,1032.61
2018-09-25T12:03:15.204Z,1032.69
2018-09-25T12:04:15.156Z,1032.64
2018-09-25T12:05:15.109Z,1032.67